Time;durP1;ratioP1;P1;durP2;ratioP2;P2;SDS_P1;SDS_P2;PMS_P1;PMS_P2;Temp;Humidity;BMP_temperature;BMP_pressure;BME280_temperature;BME280_humidity;BME280_pressure;Samples;Min_cycle;Max_cycle;Signal;HPM_P1;HPM_P2
2022/06/20 00:00:18;;;;;;;18.65;9.75;;;21.80;99.90;;;;;;5051205;28;20047;-77
2022/06/20 00:02:48;;;;;;;23.02;9.52;;;21.80;99.90;;;;;;5052301;28;20025;-77
2022/06/20 00:05:18;;;;;;;17.80;9.40;;;21.80;99.90;;;;;;5050428;28;20029;-77
2022/06/20 00:07:44;;;;;;;19.67;9.65;;;21.70;99.90;;;;;;5052252;28;20086;-77
2022/06/20 00:10:12;;;;;;;20.55;10.63;;;21.60;99.90;;;;;;5042589;28;20482;-77
2022/06/20 00:12:37;;;;;;;20.98;9.90;;;21.60;99.90;;;;;;5038355;28;20466;-77
2022/06/20 00:15:04;;;;;;;23.55;10.32;;;21.60;99.90;;;;;;5052255;28;20025;-78
2022/06/20 00:17:29;;;;;;;21.33;10.20;;;21.50;99.90;;;;;;5047731;28;20033;-78
2022/06/20 00:19:55;;;;;;;20.67;10.20;;;21.50;99.90;;;;;;5051322;28;20120;-78
2022/06/20 00:22:21;;;;;;;24.50;10.38;;;21.40;99.90;;;;;;5025394;28;20117;-78
2022/06/20 00:24:46;;;;;;;21.17;10.73;;;21.40;99.90;;;;;;5051628;28;20029;-78
2022/06/20 00:27:12;;;;;;;18.63;10.45;;;21.40;99.90;;;;;;5051969;28;20727;-78
2022/06/20 00:29:40;;;;;;;24.00;11.15;;;21.30;99.90;;;;;;5051833;28;20025;-78
2022/06/20 00:32:08;;;;;;;22.38;10.80;;;21.30;99.90;;;;;;5050542;28;20029;-78
2022/06/20 00:34:33;;;;;;;22.65;10.25;;;21.20;99.90;;;;;;5051822;28;20099;-78
2022/06/20 00:37:00;;;;;;;21.45;10.82;;;21.20;99.90;;;;;;5051935;28;20561;-78
2022/06/20 00:39:26;;;;;;;24.15;10.93;;;21.10;99.90;;;;;;5051231;28;20035;-78
2022/06/20 00:41:52;;;;;;;19.77;10.43;;;21.10;99.90;;;;;;5050307;28;20561;-78
2022/06/20 00:44:41;;;;;;;20.92;9.98;;;21.10;99.90;;;;;;5050819;28;20449;-78
2022/06/20 00:47:13;;;;;;;21.20;10.18;;;21.00;99.90;;;;;;5033119;28;20031;-78
2022/06/20 00:50:00;;;;;;;19.48;9.95;;;21.00;99.90;;;;;;5052434;28;20021;-78
2022/06/20 00:52:33;;;;;;;23.90;9.85;;;21.00;99.90;;;;;;5060099;28;20450;-78
2022/06/20 00:55:04;;;;;;;19.10;9.90;;;21.00;99.90;;;;;;5050469;28;20025;-78
2022/06/20 00:57:48;;;;;;;27.67;10.82;;;21.00;99.90;;;;;;5051118;28;20036;-78
2022/06/20 01:00:18;;;;;;;20.52;9.75;;;21.00;99.90;;;;;;5050871;28;20500;-78
2022/06/20 01:02:51;;;;;;;24.10;10.05;;;21.00;99.90;;;;;;5050337;28;20048;-78
2022/06/20 01:05:39;;;;;;;23.50;10.50;;;21.00;99.90;;;;;;5051295;28;20036;-78
2022/06/20 01:08:13;;;;;;;20.88;10.15;;;21.00;99.90;;;;;;5051402;28;20677;-78
2022/06/20 01:10:50;;;;;;;22.40;10.10;;;21.00;99.90;;;;;;5050594;28;20049;-78
2022/06/20 01:13:19;;;;;;;23.08;9.45;;;21.00;99.90;;;;;;5050201;28;20021;-78
2022/06/20 01:15:47;;;;;;;20.10;9.70;;;20.90;99.90;;;;;;5051102;28;20100;-78
2022/06/20 01:18:23;;;;;;;24.08;9.25;;;20.90;99.90;;;;;;5043063;28;20025;-78
2022/06/20 01:20:51;;;;;;;22.08;9.52;;;20.90;99.90;;;;;;5020805;28;20373;-78
2022/06/20 01:23:20;;;;;;;23.00;9.88;;;20.90;99.90;;;;;;5049602;28;20037;-78
2022/06/20 01:26:21;;;;;;;20.67;9.85;;;20.90;99.90;;;;;;5042872;28;20464;-78
2022/06/20 01:28:49;;;;;;;23.83;9.57;;;20.90;99.90;;;;;;5050908;28;20108;-78
2022/06/20 01:31:18;;;;;;;25.23;10.35;;;20.90;99.90;;;;;;5032516;28;20037;-78
2022/06/20 01:33:44;;;;;;;22.33;9.98;;;20.90;99.90;;;;;;5050906;28;20465;-78
2022/06/20 01:38:59;;;;;;;22.77;9.43;;;20.90;99.90;;;;;;5051095;28;20075;-78
2022/06/20 01:44:11;;;;;;;21.67;9.73;;;20.90;99.90;;;;;;5049983;28;20063;-78
2022/06/20 01:46:36;;;;;;;19.77;9.32;;;20.90;99.90;;;;;;5050211;28;20021;-78
2022/06/20 01:49:12;;;;;;;18.10;9.52;;;20.90;99.90;;;;;;5050201;28;20105;-78
2022/06/20 01:52:24;;;;;;;23.23;9.95;;;20.90;99.90;;;;;;5049845;28;20458;-78
2022/06/20 01:55:03;;;;;;;22.55;9.65;;;20.90;99.90;;;;;;4989659;28;20071;-78
2022/06/20 01:57:31;;;;;;;25.30;9.88;;;20.80;99.90;;;;;;5048994;28;20087;-78
2022/06/20 02:00:03;;;;;;;24.90;9.52;;;20.80;99.90;;;;;;5054499;28;20029;-78
2022/06/20 02:02:33;;;;;;;19.55;9.45;;;20.80;99.90;;;;;;5053279;28;20429;-78
2022/06/20 02:05:01;;;;;;;20.35;9.35;;;20.80;99.90;;;;;;5040550;28;20079;-79
2022/06/20 02:07:26;;;;;;;21.77;9.15;;;20.80;99.90;;;;;;5054111;28;20024;-78
2022/06/20 02:09:52;;;;;;;19.45;8.75;;;20.80;99.90;;;;;;5054045;28;20043;-78
2022/06/20 02:12:19;;;;;;;25.98;9.60;;;20.80;99.90;;;;;;5053304;28;20036;-78
2022/06/20 02:14:49;;;;;;;28.65;10.38;;;20.80;99.90;;;;;;5053856;28;20025;-78
2022/06/20 02:17:31;;;;;;;21.23;9.80;;;20.80;99.90;;;;;;5051758;28;20021;-78
2022/06/20 02:19:59;;;;;;;21.38;9.63;;;20.80;99.90;;;;;;5052241;28;20075;-78
2022/06/20 02:22:26;;;;;;;24.02;9.82;;;20.70;99.90;;;;;;5052302;28;20423;-78
2022/06/20 02:25:01;;;;;;;22.20;9.60;;;20.70;99.90;;;;;;5053221;28;20032;-78
2022/06/20 02:28:03;;;;;;;24.90;10.07;;;20.70;99.90;;;;;;5053908;28;20079;-78
2022/06/20 02:30:30;;;;;;;22.25;9.35;;;20.70;99.90;;;;;;5035833;28;20362;-78
2022/06/20 02:33:04;;;;;;;22.42;9.88;;;20.70;99.90;;;;;;5051696;28;20017;-78
2022/06/20 02:35:31;;;;;;;21.42;9.65;;;20.60;99.90;;;;;;5053906;28;20021;-78
2022/06/20 02:37:56;;;;;;;23.63;9.60;;;20.60;99.90;;;;;;5053646;28;20036;-78
2022/06/20 02:40:25;;;;;;;26.45;9.48;;;20.60;99.90;;;;;;5035691;28;20549;-78
2022/06/20 02:43:17;;;;;;;23.85;9.70;;;20.60;99.90;;;;;;5047154;28;20396;-78
2022/06/20 02:45:44;;;;;;;26.25;10.73;;;20.60;99.90;;;;;;5053244;28;20025;-78
2022/06/20 02:48:11;;;;;;;21.50;9.40;;;20.50;99.90;;;;;;5053605;28;20409;-78
2022/06/20 02:50:44;;;;;;;19.25;9.75;;;20.60;99.90;;;;;;5053709;28;20036;-78
2022/06/20 02:53:30;;;;;;;22.77;9.80;;;20.50;99.90;;;;;;5053012;28;20018;-78
2022/06/20 02:55:56;;;;;;;20.88;8.80;;;20.60;99.90;;;;;;5052292;28;20087;-78
2022/06/20 02:58:26;;;;;;;21.88;9.15;;;20.60;99.90;;;;;;5053428;28;20036;-78
2022/06/20 03:01:01;;;;;;;25.15;10.50;;;20.60;99.90;;;;;;5052865;28;20052;-78
2022/06/20 03:03:39;;;;;;;22.88;10.38;;;20.60;99.90;;;;;;5040742;28;20028;-78
2022/06/20 03:06:09;;;;;;;24.75;9.82;;;20.60;99.90;;;;;;5044697;28;20065;-78
2022/06/20 03:08:35;;;;;;;24.67;10.07;;;20.60;99.90;;;;;;5053285;28;20078;-78
2022/06/20 03:11:04;;;;;;;20.60;8.75;;;20.50;99.90;;;;;;5052577;28;20040;-78
2022/06/20 03:13:31;;;;;;;24.50;9.23;;;20.60;99.90;;;;;;5053289;28;20439;-78
2022/06/20 03:16:00;;;;;;;25.15;9.30;;;20.50;99.90;;;;;;5052866;28;20025;-78
2022/06/20 03:18:26;;;;;;;22.15;9.07;;;20.50;99.90;;;;;;5048125;28;20052;-79
2022/06/20 03:20:52;;;;;;;21.05;9.35;;;20.60;99.90;;;;;;5034796;28;20033;-78
2022/06/20 03:23:32;;;;;;;21.38;8.60;;;20.60;99.90;;;;;;5052414;28;20027;-78
2022/06/20 03:26:01;;;;;;;27.40;9.90;;;20.70;99.90;;;;;;5053098;28;20043;-78
2022/06/20 03:28:28;;;;;;;22.38;9.25;;;20.70;99.90;;;;;;5034844;28;20032;-78
2022/06/20 03:30:57;;;;;;;17.27;8.77;;;20.80;99.90;;;;;;5052228;28;20076;-78
2022/06/20 03:33:23;;;;;;;21.80;9.18;;;20.80;99.90;;;;;;5052695;28;20024;-78
2022/06/20 03:35:54;;;;;;;25.67;9.65;;;20.90;99.90;;;;;;5052516;28;20474;-78
2022/06/20 03:38:21;;;;;;;20.30;9.82;;;20.90;99.90;;;;;;5052728;28;20079;-78
2022/06/20 03:40:47;;;;;;;24.92;9.60;;;20.90;99.90;;;;;;5052121;28;20381;-78
2022/06/20 03:43:17;;;;;;;25.33;8.63;;;20.90;99.90;;;;;;5052347;28;20535;-78
2022/06/20 03:45:55;;;;;;;25.15;10.27;;;20.90;99.90;;;;;;5051089;28;20025;-78
2022/06/20 03:48:38;;;;;;;24.95;9.00;;;21.00;99.90;;;;;;5034807;28;20033;-78
2022/06/20 03:51:19;;;;;;;21.08;8.60;;;21.00;99.90;;;;;;5052187;28;20420;-78
2022/06/20 03:53:53;;;;;;;20.67;9.30;;;21.00;99.90;;;;;;5052907;28;20437;-78
2022/06/20 03:56:29;;;;;;;27.35;9.98;;;21.00;99.90;;;;;;5052799;28;20036;-78
2022/06/20 03:59:24;;;;;;;25.35;9.35;;;21.00;99.90;;;;;;5021762;28;20034;-78
2022/06/20 04:02:04;;;;;;;22.08;9.55;;;21.00;99.90;;;;;;5011835;28;20532;-78
2022/06/20 04:04:46;;;;;;;18.88;9.07;;;21.00;99.90;;;;;;5053836;28;20044;-78
2022/06/20 04:07:21;;;;;;;21.80;8.75;;;21.10;99.90;;;;;;5053497;28;20074;-72
2022/06/20 04:12:50;;;;;;;21.38;9.00;;;21.10;99.90;;;;;;5051344;28;20401;-73
2022/06/20 04:15:42;;;;;;;20.42;9.13;;;21.10;99.90;;;;;;5051902;28;20045;-73
2022/06/20 04:18:29;;;;;;;19.67;9.43;;;21.20;99.90;;;;;;5044707;28;20126;-74
2022/06/20 04:20:57;;;;;;;23.52;9.15;;;21.20;99.90;;;;;;5052190;28;20025;-73
2022/06/20 04:23:48;;;;;;;23.65;8.95;;;21.30;99.90;;;;;;5061957;28;20059;-74
2022/06/20 04:26:32;;;;;;;23.70;9.30;;;21.30;99.90;;;;;;5069024;28;20020;-73
2022/06/20 04:29:16;;;;;;;25.52;9.23;;;21.30;99.90;;;;;;5050806;28;20466;-73
2022/06/20 04:31:48;;;;;;;24.45;8.80;;;21.40;99.90;;;;;;5065659;28;20016;-73
2022/06/20 04:34:24;;;;;;;19.77;8.90;;;21.50;99.90;;;;;;5058453;28;20025;-74
2022/06/20 04:36:55;;;;;;;19.80;8.25;;;21.50;99.90;;;;;;5058424;28;20020;-73
2022/06/20 04:39:46;;;;;;;24.10;9.82;;;21.60;99.90;;;;;;5031318;28;20028;-73
2022/06/20 04:42:21;;;;;;;20.27;8.38;;;21.70;99.90;;;;;;5052063;28;20103;-73
2022/06/20 04:45:02;;;;;;;20.73;8.75;;;21.70;99.90;;;;;;5054829;28;20036;-73
2022/06/20 04:47:43;;;;;;;23.45;9.23;;;21.70;99.90;;;;;;5043256;28;20789;-73
2022/06/20 04:50:16;;;;;;;20.65;8.38;;;21.80;99.90;;;;;;5052113;28;20041;-73
2022/06/20 04:52:42;;;;;;;22.27;8.45;;;21.80;99.90;;;;;;5052930;28;20079;-73
2022/06/20 04:55:15;;;;;;;26.70;8.52;;;21.80;99.90;;;;;;5055287;28;20078;-73
2022/06/20 04:57:41;;;;;;;24.67;8.32;;;21.80;99.90;;;;;;5062572;28;20028;-73
2022/06/20 05:00:13;;;;;;;19.20;7.78;;;21.80;99.90;;;;;;5050002;28;20021;-73
2022/06/20 05:02:39;;;;;;;19.90;9.13;;;21.90;99.90;;;;;;5056838;28;20036;-73
2022/06/20 05:05:12;;;;;;;17.15;8.18;;;21.90;99.90;;;;;;5059972;28;20086;-73
2022/06/20 05:07:39;;;;;;;25.75;8.43;;;21.90;99.90;;;;;;5065357;28;20020;-73
2022/06/20 05:10:24;;;;;;;16.77;7.93;;;21.90;99.90;;;;;;5054338;28;20497;-74
2022/06/20 05:13:01;;;;;;;18.17;7.90;;;21.90;99.90;;;;;;5054146;28;20053;-74
2022/06/20 05:15:34;;;;;;;20.50;8.00;;;21.90;99.90;;;;;;5056437;28;20633;-74
2022/06/20 05:18:16;;;;;;;21.17;8.52;;;21.90;99.90;;;;;;5049569;28;20021;-74
2022/06/20 05:20:43;;;;;;;20.75;8.02;;;21.80;99.90;;;;;;5056838;28;20032;-74
2022/06/20 05:23:23;;;;;;;17.02;8.07;;;21.90;99.90;;;;;;5030346;28;20111;-74
2022/06/20 05:25:49;;;;;;;25.23;8.25;;;21.90;99.90;;;;;;5055759;28;20029;-74
2022/06/20 05:28:19;;;;;;;19.67;7.60;;;21.90;99.90;;;;;;5048434;28;20041;-74
2022/06/20 05:30:46;;;;;;;16.92;7.03;;;22.00;99.90;;;;;;5048783;28;20023;-74
2022/06/20 05:33:34;;;;;;;18.50;6.93;;;22.10;99.90;;;;;;5048271;28;20021;-74
2022/06/20 05:36:02;;;;;;;21.38;7.75;;;22.20;99.90;;;;;;5048507;28;20019;-74
2022/06/20 05:38:41;;;;;;;22.17;7.68;;;22.50;99.90;;;;;;5047628;28;20044;-74
2022/06/20 05:41:10;;;;;;;15.75;7.25;;;22.80;99.90;;;;;;5047657;28;20040;-74
2022/06/20 05:43:36;;;;;;;14.32;7.00;;;23.00;99.90;;;;;;5046985;28;20134;-74
2022/06/20 05:46:07;;;;;;;15.60;6.25;;;23.10;99.90;;;;;;5048026;28;20063;-74
2022/06/20 05:48:37;;;;;;;21.65;7.50;;;23.20;99.90;;;;;;5029769;28;20106;-75
2022/06/20 05:51:06;;;;;;;17.45;7.18;;;23.30;99.90;;;;;;5048840;28;20021;-75
2022/06/20 05:53:36;;;;;;;16.20;7.03;;;23.40;99.90;;;;;;5048766;28;20029;-74
2022/06/20 05:56:09;;;;;;;17.08;7.30;;;23.50;99.90;;;;;;5047856;28;20561;-74
2022/06/20 05:58:37;;;;;;;16.67;7.28;;;23.70;99.90;;;;;;5047543;28;20076;-74
2022/06/20 06:01:07;;;;;;;16.60;7.40;;;23.80;99.90;;;;;;5049475;28;20381;-74
2022/06/20 06:03:46;;;;;;;23.08;7.45;;;23.80;99.90;;;;;;5049594;28;20091;-74
2022/06/20 06:06:23;;;;;;;17.55;6.25;;;23.90;99.90;;;;;;5042629;28;20026;-74
2022/06/20 06:08:56;;;;;;;14.23;6.60;;;23.90;99.90;;;;;;5031039;28;20047;-74
2022/06/20 06:11:46;;;;;;;17.77;7.38;;;23.90;99.90;;;;;;5049384;28;20065;-74
2022/06/20 06:14:34;;;;;;;19.05;6.88;;;24.00;99.90;;;;;;5049475;28;20029;-75
2022/06/20 06:17:06;;;;;;;25.85;7.50;;;24.20;99.90;;;;;;5041727;28;20021;-74
2022/06/20 06:19:48;;;;;;;18.67;6.25;;;24.30;99.90;;;;;;5057633;28;20029;-75
2022/06/20 06:22:23;;;;;;;19.50;7.10;;;24.40;99.90;;;;;;5056366;28;20469;-75
2022/06/20 06:24:55;;;;;;;18.13;7.40;;;24.40;99.90;;;;;;5049685;28;20471;-74
2022/06/20 06:27:30;;;;;;;15.90;7.28;;;24.30;99.90;;;;;;5051315;28;20040;-75
2022/06/20 06:30:13;;;;;;;16.35;7.05;;;24.30;99.90;;;;;;5049203;28;20102;-75
2022/06/20 06:32:44;;;;;;;19.85;7.03;;;24.40;99.90;;;;;;5047284;28;20067;-74
2022/06/20 06:35:26;;;;;;;16.80;7.15;;;24.30;99.90;;;;;;5049992;28;20437;-74
2022/06/20 06:38:00;;;;;;;15.98;7.13;;;24.20;99.90;;;;;;5051288;28;20084;-74
2022/06/20 06:40:48;;;;;;;18.60;7.20;;;24.20;99.90;;;;;;5048966;28;20044;-74
2022/06/20 06:43:23;;;;;;;17.75;7.05;;;24.20;99.90;;;;;;5047681;28;20033;-72
2022/06/20 06:45:51;;;;;;;;;;;24.30;99.90;;;;;;5049938;28;20029;-71
2022/06/20 06:48:34;;;;;;;13.35;6.55;;;24.40;99.90;;;;;;5034548;28;19920;-75
2022/06/20 06:51:08;;;;;;;19.10;7.60;;;24.60;99.90;;;;;;5054156;28;20139;-75
2022/06/20 06:53:38;;;;;;;20.05;6.88;;;24.70;99.90;;;;;;5052086;28;20435;-75
2022/06/20 06:56:36;;;;;;;18.08;7.00;;;24.90;99.90;;;;;;5054910;28;20037;-75
2022/06/20 06:59:11;;;;;;;12.80;6.50;;;25.10;99.90;;;;;;5037881;28;20065;-75
2022/06/20 07:01:44;;;;;;;19.63;7.55;;;25.40;99.90;;;;;;5048881;28;20552;-75
2022/06/20 07:04:21;;;;;;;19.63;7.32;;;25.50;99.90;;;;;;5052342;28;20031;-75
2022/06/20 07:06:55;;;;;;;19.95;7.20;;;25.70;99.90;;;;;;5040064;28;20041;-75
2022/06/20 07:09:36;;;;;;;15.75;6.35;;;25.90;99.90;;;;;;5052110;28;20036;-75
2022/06/20 07:12:28;;;;;;;17.10;6.22;;;26.20;99.90;;;;;;5054734;28;20029;-74
2022/06/20 07:15:02;;;;;;;13.68;6.15;;;26.30;99.90;;;;;;5018197;28;20034;-74
2022/06/20 07:17:36;;;;;;;22.38;6.53;;;26.30;99.90;;;;;;5055816;28;20028;-75
2022/06/20 07:20:03;;;;;;;16.05;6.30;;;26.40;99.90;;;;;;5059512;28;20044;-74
2022/06/20 07:22:30;;;;;;;15.77;6.45;;;26.40;99.90;;;;;;5034976;28;20037;-74
2022/06/20 07:24:56;;;;;;;17.27;6.25;;;26.50;99.90;;;;;;5047408;28;20021;-74
2022/06/20 07:27:34;;;;;;;16.35;5.88;;;26.50;99.90;;;;;;5052768;28;20086;-74
2022/06/20 07:30:09;;;;;;;15.18;5.72;;;26.50;99.90;;;;;;5032597;28;20037;-74
2022/06/20 07:32:34;;;;;;;12.82;5.70;;;26.50;99.90;;;;;;5052201;28;20041;-74
2022/06/20 07:35:06;;;;;;;14.65;5.38;;;26.60;99.90;;;;;;5042852;28;20054;-72
2022/06/20 07:37:40;;;;;;;13.88;6.28;;;26.70;99.90;;;;;;5047763;28;20064;-72
2022/06/20 07:40:28;;;;;;;14.05;6.18;;;26.80;99.90;;;;;;5046495;28;20469;-72
2022/06/20 07:43:00;;;;;;;14.95;5.82;;;26.90;99.90;;;;;;5037701;28;20033;-71
2022/06/20 07:45:38;;;;;;;13.50;6.03;;;27.10;99.90;;;;;;5025240;28;20029;-71
2022/06/20 07:48:20;;;;;;;14.73;6.15;;;27.20;99.90;;;;;;5043372;28;20376;-71
2022/06/20 07:50:58;;;;;;;15.95;5.82;;;27.40;99.90;;;;;;5050476;28;20036;-71
2022/06/20 07:53:41;;;;;;;13.65;6.22;;;27.50;99.90;;;;;;5049321;28;20041;-72
2022/06/20 07:56:16;;;;;;;15.32;5.75;;;27.50;99.90;;;;;;5050316;28;20376;-75
2022/06/20 07:58:48;;;;;;;16.50;6.25;;;27.30;99.90;;;;;;5052354;28;20020;-74
2022/06/20 08:01:26;;;;;;;11.85;5.97;;;27.10;99.90;;;;;;5053957;28;20488;-73
2022/06/20 08:04:02;;;;;;;17.63;5.93;;;27.10;99.90;;;;;;5057639;28;20116;-73
2022/06/20 08:06:36;;;;;;;18.08;5.57;;;27.00;99.90;;;;;;5050792;28;20039;-75
2022/06/20 08:09:16;;;;;;;9.45;4.93;;;26.90;99.90;;;;;;5052762;28;20021;-74
2022/06/20 08:11:47;;;;;;;16.63;4.30;;;26.90;99.90;;;;;;5059748;28;20116;-74
2022/06/20 08:14:41;;;;;;;22.48;5.18;;;26.90;99.90;;;;;;5055285;28;20013;-74
2022/06/20 08:17:08;;;;;;;12.97;4.47;;;27.00;99.90;;;;;;5045355;28;20029;-74
2022/06/20 08:19:36;;;;;;;15.93;4.57;;;27.10;99.90;;;;;;5043056;28;20090;-73
2022/06/20 08:22:18;;;;;;;17.42;5.43;;;27.30;99.90;;;;;;5049730;28;20025;-73
2022/06/20 08:24:57;;;;;;;17.73;4.95;;;27.60;99.90;;;;;;5046306;28;20048;-73
2022/06/20 08:27:49;;;;;;;18.60;5.07;;;27.90;99.90;;;;;;5044560;28;20025;-80
2022/06/20 08:30:18;;;;;;;11.95;5.32;;;28.10;99.90;;;;;;5048291;28;20024;-80
2022/06/20 08:33:01;;;;;;;16.60;5.13;;;28.00;99.90;;;;;;5024619;28;20021;-79
2022/06/20 08:35:39;;;;;;;17.02;5.03;;;27.90;99.90;;;;;;5053286;28;20056;-81
2022/06/20 08:38:34;;;;;;;12.50;4.80;;;27.90;99.90;;;;;;5053340;28;20070;-79
2022/06/20 08:41:27;;;;;;;11.38;5.03;;;27.90;99.90;;;;;;5048815;28;20025;-80
2022/06/20 08:44:08;;;;;;;12.10;4.60;;;27.80;99.90;;;;;;5045974;28;20029;-80
2022/06/20 08:46:46;;;;;;;17.92;4.78;;;27.80;99.90;;;;;;5050984;28;20033;-80
2022/06/20 08:49:23;;;;;;;13.52;5.07;;;27.90;99.90;;;;;;5046767;28;20041;-80
2022/06/20 08:52:23;;;;;;;10.07;4.40;;;28.00;99.90;;;;;;5050969;28;20025;-80
2022/06/20 08:55:08;;;;;;;11.13;4.72;;;28.20;99.90;;;;;;5040431;28;20095;-80
2022/06/20 08:57:50;;;;;;;14.25;4.80;;;28.30;99.90;;;;;;5046515;28;20447;-81
2022/06/20 09:00:31;;;;;;;13.35;4.82;;;28.50;99.90;;;;;;5049444;28;20029;-81
2022/06/20 09:03:38;;;;;;;20.98;5.60;;;28.60;99.90;;;;;;5027674;28;20024;-81
2022/06/20 09:06:24;;;;;;;15.00;4.45;;;28.60;99.90;;;;;;5042591;28;20036;-79
2022/06/20 09:09:04;;;;;;;12.77;4.82;;;28.60;99.90;;;;;;5041304;28;20381;-79
2022/06/20 09:12:01;;;;;;;12.43;4.57;;;28.60;99.90;;;;;;5024657;28;20127;-79
2022/06/20 09:14:39;;;;;;;17.20;4.20;;;28.70;99.90;;;;;;5033802;28;20478;-79
2022/06/20 09:17:43;;;;;;;12.95;4.05;;;28.90;99.90;;;;;;5042061;28;20110;-80
2022/06/20 09:20:11;;;;;;;11.00;4.60;;;29.00;99.80;;;;;;5040349;28;20025;-75
2022/06/20 09:22:39;;;;;;;10.98;3.47;;;29.00;99.90;;;;;;5038052;28;20063;-75
2022/06/20 09:25:07;;;;;;;9.20;4.13;;;29.00;98.60;;;;;;5049261;28;20024;-75
2022/06/20 09:27:49;;;;;;;14.68;3.63;;;29.00;98.80;;;;;;5043701;28;20408;-75
2022/06/20 09:30:51;;;;;;;12.93;3.92;;;29.10;98.00;;;;;;5049786;28;20095;-77
2022/06/20 09:33:46;;;;;;;12.60;3.70;;;29.20;97.30;;;;;;5044397;28;20022;-76
2022/06/20 09:36:36;;;;;;;9.50;3.40;;;29.10;97.10;;;;;;5046709;28;20087;-80
2022/06/20 09:39:25;;;;;;;13.23;4.05;;;29.00;96.60;;;;;;5048515;28;20029;-79
2022/06/20 09:42:25;;;;;;;10.55;3.90;;;28.80;97.10;;;;;;5038446;28;20032;-79
2022/06/20 09:45:11;;;;;;;9.15;3.33;;;28.80;97.40;;;;;;4999966;28;20108;-80
2022/06/20 09:47:45;;;;;;;7.32;3.40;;;28.60;97.80;;;;;;5025498;28;20408;-79
2022/06/20 09:50:48;;;;;;;11.43;4.35;;;28.50;98.40;;;;;;5042438;28;20033;-79
2022/06/20 09:53:42;;;;;;;7.85;3.90;;;28.40;98.90;;;;;;5042806;28;20032;-79
2022/06/20 09:56:34;;;;;;;5.57;3.38;;;28.40;99.80;;;;;;5028515;28;20139;-78
2022/06/20 09:59:22;;;;;;;12.10;3.55;;;28.60;99.80;;;;;;5038932;28;20485;-81
2022/06/20 10:01:55;;;;;;;9.18;3.83;;;28.90;99.00;;;;;;5035559;28;20804;-80
2022/06/20 10:04:48;;;;;;;9.07;3.75;;;28.90;97.90;;;;;;5025269;28;20095;-80
2022/06/20 10:07:29;;;;;;;11.40;4.05;;;28.90;98.80;;;;;;5049360;28;20064;-80
2022/06/20 10:10:10;;;;;;;11.35;3.80;;;29.00;97.80;;;;;;5049290;28;20049;-80
2022/06/20 10:12:57;;;;;;;9.35;4.10;;;28.90;97.30;;;;;;5043160;28;20100;-80
2022/06/20 10:15:37;;;;;;;11.98;3.58;;;29.00;97.30;;;;;;5042009;28;20045;-80
2022/06/20 10:18:29;;;;;;;9.23;3.28;;;28.90;96.40;;;;;;5043414;28;20051;-80
2022/06/20 10:21:09;;;;;;;11.82;3.70;;;28.90;95.90;;;;;;5055137;28;20041;-80
2022/06/20 10:24:12;;;;;;;7.28;3.30;;;28.90;96.50;;;;;;5033034;28;20388;-80
2022/06/20 10:27:05;;;;;;;13.13;4.15;;;29.00;97.30;;;;;;5045686;28;20493;-80
2022/06/20 10:30:01;;;;;;;13.13;3.60;;;29.10;97.90;;;;;;5028055;28;20064;-80
2022/06/20 10:32:52;;;;;;;10.25;3.97;;;29.40;98.30;;;;;;5054216;28;20032;-80
2022/06/20 10:35:45;;;;;;;10.65;3.60;;;29.60;96.50;;;;;;5049502;28;20865;-80
2022/06/20 10:38:37;;;;;;;8.55;4.35;;;30.10;95.40;;;;;;5036922;28;20049;-80
2022/06/20 10:41:13;;;;;;;18.13;4.00;;;30.30;95.90;;;;;;5055632;28;20474;-80
2022/06/20 10:43:55;;;;;;;15.57;3.83;;;30.50;95.00;;;;;;5037630;28;20021;-80
2022/06/20 10:47:10;;;;;;;7.72;2.92;;;30.60;94.00;;;;;;5054934;28;20444;-80
2022/06/20 10:49:50;;;;;;;7.45;3.00;;;30.50;92.50;;;;;;5058537;28;20029;-78
2022/06/20 10:52:45;;;;;;;8.88;3.22;;;30.70;92.60;;;;;;5065524;28;20020;-78
2022/06/20 10:55:24;;;;;;;8.63;3.35;;;30.90;91.20;;;;;;5053168;28;20067;-78
2022/06/20 10:58:08;;;;;;;13.93;3.20;;;31.10;92.00;;;;;;5063481;28;20055;-78
2022/06/20 11:00:42;;;;;;;12.38;3.22;;;31.20;90.80;;;;;;5056656;28;20283;-76
2022/06/20 11:03:08;;;;;;;9.88;3.67;;;31.30;88.40;;;;;;5064718;28;20470;-78
2022/06/20 11:06:01;;;;;;;9.30;3.60;;;31.40;90.40;;;;;;5058505;28;20044;-78
2022/06/20 11:08:50;;;;;;;13.30;3.40;;;31.50;88.40;;;;;;5051004;28;20029;-79
2022/06/20 11:11:28;;;;;;;8.85;3.17;;;31.60;87.70;;;;;;5041219;28;20049;-79
2022/06/20 11:13:57;;;;;;;6.95;3.25;;;31.70;90.40;;;;;;5052329;28;20070;-78
2022/06/20 11:16:53;;;;;;;11.93;3.30;;;31.80;87.90;;;;;;5050977;28;20025;-78
2022/06/20 11:19:45;;;;;;;8.45;2.97;;;31.90;86.10;;;;;;5051402;28;20025;-79
2022/06/20 11:22:33;;;;;;;9.50;3.25;;;31.90;87.20;;;;;;5052546;28;20108;-77
2022/06/20 11:25:20;;;;;;;12.35;3.13;;;32.30;85.20;;;;;;5056444;28;20084;-78
2022/06/20 11:28:04;;;;;;;9.43;3.00;;;32.50;85.50;;;;;;5047417;28;20033;-79
2022/06/20 11:30:53;;;;;;;10.60;3.45;;;32.80;85.20;;;;;;5055097;28;21344;-79
2022/06/20 11:36:30;;;;;;;10.15;3.33;;;32.60;84.40;;;;;;5043065;28;20421;-79
2022/06/20 11:39:01;;;;;;;5.70;3.25;;;32.20;84.50;;;;;;5061786;28;20040;-79
2022/06/20 11:41:36;;;;;;;7.97;3.15;;;31.70;84.90;;;;;;5056615;28;20017;-80
2022/06/20 11:44:20;;;;;;;7.40;3.22;;;31.60;86.30;;;;;;5063306;28;20021;-79
2022/06/20 11:47:09;;;;;;;8.82;3.35;;;31.50;83.30;;;;;;5059386;28;20036;-79
2022/06/20 11:49:49;;;;;;;6.93;2.80;;;31.20;85.20;;;;;;5036179;28;20512;-79
2022/06/20 11:52:42;;;;;;;7.13;3.63;;;30.80;85.60;;;;;;5053781;28;20035;-79
2022/06/20 11:55:28;;;;;;;8.63;3.28;;;30.50;87.80;;;;;;5068458;28;20029;-79
2022/06/20 11:58:18;;;;;;;10.75;3.50;;;30.30;90.30;;;;;;5048905;28;20862;-79
2022/06/20 12:00:48;;;;;;;7.68;3.22;;;30.30;89.40;;;;;;5058523;28;20039;-78
2022/06/20 12:03:43;;;;;;;14.25;3.60;;;30.60;90.30;;;;;;5058771;28;20024;-79
2022/06/20 12:06:30;;;;;;;;;;;30.80;89.80;;;;;;5024506;28;20104;-80
2022/06/20 12:09:34;;;;;;;9.95;3.50;;;31.00;88.90;;;;;;5050811;28;19919;-79
2022/06/20 12:12:27;;;;;;;7.05;3.67;;;31.60;87.60;;;;;;5024839;28;20057;-79
2022/06/20 12:15:12;;;;;;;6.57;3.35;;;32.00;85.90;;;;;;5024913;28;20025;-79
2022/06/20 12:17:52;;;;;;;10.73;3.80;;;32.40;85.90;;;;;;5001039;28;20024;-80
2022/06/20 12:23:19;;;;;;;11.32;3.80;;;32.10;86.40;;;;;;5028981;28;20071;-79
2022/06/20 12:25:47;;;;;;;10.15;3.53;;;32.00;85.20;;;;;;5005193;28;20033;-79
2022/06/20 12:28:24;;;;;;;9.02;3.80;;;32.10;83.40;;;;;;5004851;28;20224;-80
2022/06/20 12:31:25;;;;;;;8.82;3.67;;;32.20;85.30;;;;;;5030719;28;20013;-79
2022/06/20 12:33:53;;;;;;;8.23;3.60;;;32.60;83.40;;;;;;5008869;28;20069;-80
2022/06/20 12:36:54;;;;;;;8.50;3.70;;;33.20;83.20;;;;;;5009023;28;20471;-79
2022/06/20 12:39:25;;;;;;;10.57;3.97;;;33.80;83.30;;;;;;5043293;28;20067;-80
2022/06/20 12:42:22;;;;;;;10.90;3.63;;;34.00;80.70;;;;;;5024897;28;20033;-79
2022/06/20 12:44:57;;;;;;;9.93;3.85;;;34.40;78.60;;;;;;5001606;28;20084;-80
2022/06/20 12:47:35;;;;;;;8.98;3.63;;;34.60;78.40;;;;;;5030498;28;20170;-80
2022/06/20 12:50:10;;;;;;;8.93;3.60;;;34.90;76.40;;;;;;5030341;28;20033;-80
2022/06/20 12:53:00;;;;;;;12.57;3.72;;;34.90;77.10;;;;;;5035630;28;20028;-80
2022/06/20 12:56:02;;;;;;;9.50;3.80;;;35.30;77.00;;;;;;5013820;28;20022;-80
2022/06/20 12:58:47;;;;;;;10.93;3.20;;;35.40;74.70;;;;;;5032193;28;20182;-79
2022/06/20 13:01:52;;;;;;;14.05;3.92;;;35.30;74.90;;;;;;5013665;28;20018;-79
2022/06/20 13:04:55;;;;;;;10.73;3.10;;;35.30;73.80;;;;;;5023437;28;20398;-80
2022/06/20 13:07:26;;;;;;;9.40;3.05;;;35.00;70.80;;;;;;5031568;28;20025;-79
2022/06/20 13:10:18;;;;;;;11.43;3.75;;;34.90;71.70;;;;;;5018266;28;20489;-79
2022/06/20 13:13:15;;;;;;;10.52;3.25;;;34.80;72.10;;;;;;5017114;28;20029;-79
2022/06/20 13:16:02;;;;;;;9.07;3.33;;;34.50;73.10;;;;;;5023252;28;20497;-79
2022/06/20 13:18:39;;;;;;;13.18;3.38;;;34.60;73.90;;;;;;5051581;28;20170;-79
2022/06/20 13:21:16;;;;;;;10.45;4.18;;;34.40;71.80;;;;;;5033415;28;20040;-76
2022/06/20 13:23:52;;;;;;;12.68;4.25;;;34.20;73.40;;;;;;5051581;28;20115;-80
2022/06/20 13:26:33;;;;;;;11.60;3.35;;;34.00;74.20;;;;;;5051054;28;20028;-80
2022/06/20 13:29:14;;;;;;;9.90;3.58;;;33.90;74.00;;;;;;5049840;28;20032;-81
2022/06/20 13:31:49;;;;;;;8.70;3.33;;;34.00;77.50;;;;;;5032793;28;20017;-78
2022/06/20 13:34:33;;;;;;;15.43;3.65;;;34.10;74.60;;;;;;5050857;28;20017;-77
2022/06/20 13:37:20;;;;;;;10.65;3.20;;;33.80;73.90;;;;;;5033415;28;20013;-77
2022/06/20 13:39:49;;;;;;;10.20;3.20;;;33.60;75.60;;;;;;5013248;28;20033;-78
2022/06/20 13:42:41;;;;;;;7.28;3.42;;;33.30;78.20;;;;;;5028320;28;20036;-78
2022/06/20 13:45:14;;;;;;;13.68;3.67;;;32.90;77.20;;;;;;5058539;28;20021;-78
2022/06/20 13:47:52;;;;;;;10.50;3.60;;;32.90;78.50;;;;;;5050677;28;20090;-78